sensor_id;sensor_type;location;lat;lon;timestamp;P1;durP1;ratioP1;P2;durP2;ratioP2
19554;SDS011;9924;50.828;6.440;2024-03-22T00:01:48;16.70;;;7.47;;
19554;SDS011;9924;50.828;6.440;2024-03-22T00:04:15;16.92;;;7.68;;
19554;SDS011;9924;50.828;6.440;2024-03-22T00:06:41;16.38;;;6.90;;
19554;SDS011;9924;50.828;6.440;2024-03-22T00:09:08;16.45;;;7.57;;
19554;SDS011;9924;50.828;6.440;2024-03-22T00:11:35;14.40;;;6.95;;
19554;SDS011;9924;50.828;6.440;2024-03-22T00:14:01;14.88;;;7.57;;
19554;SDS011;9924;50.828;6.440;2024-03-22T00:16:27;14.77;;;7.35;;
19554;SDS011;9924;50.828;6.440;2024-03-22T00:18:53;17.23;;;7.72;;
19554;SDS011;9924;50.828;6.440;2024-03-22T00:21:20;15.27;;;7.32;;
19554;SDS011;9924;50.828;6.440;2024-03-22T00:23:46;14.85;;;7.38;;
19554;SDS011;9924;50.828;6.440;2024-03-22T00:26:12;15.20;;;7.20;;
19554;SDS011;9924;50.828;6.440;2024-03-22T00:28:38;16.13;;;7.28;;
19554;SDS011;9924;50.828;6.440;2024-03-22T00:31:03;13.88;;;6.70;;
19554;SDS011;9924;50.828;6.440;2024-03-22T00:33:29;17.45;;;7.45;;
19554;SDS011;9924;50.828;6.440;2024-03-22T00:35:55;18.40;;;8.50;;
19554;SDS011;9924;50.828;6.440;2024-03-22T00:38:20;17.05;;;8.02;;
19554;SDS011;9924;50.828;6.440;2024-03-22T00:40:46;17.38;;;7.95;;
19554;SDS011;9924;50.828;6.440;2024-03-22T00:43:12;15.65;;;7.78;;
19554;SDS011;9924;50.828;6.440;2024-03-22T00:45:38;17.58;;;8.32;;
19554;SDS011;9924;50.828;6.440;2024-03-22T00:48:03;17.13;;;6.60;;
19554;SDS011;9924;50.828;6.440;2024-03-22T00:50:30;15.25;;;7.07;;
19554;SDS011;9924;50.828;6.440;2024-03-22T00:52:56;13.65;;;7.45;;
19554;SDS011;9924;50.828;6.440;2024-03-22T00:55:22;16.42;;;6.93;;
19554;SDS011;9924;50.828;6.440;2024-03-22T00:57:48;15.30;;;7.25;;
19554;SDS011;9924;50.828;6.440;2024-03-22T01:00:14;14.63;;;6.97;;
19554;SDS011;9924;50.828;6.440;2024-03-22T01:02:41;17.17;;;6.70;;
19554;SDS011;9924;50.828;6.440;2024-03-22T01:05:08;13.05;;;6.38;;
19554;SDS011;9924;50.828;6.440;2024-03-22T01:07:33;13.95;;;6.68;;
19554;SDS011;9924;50.828;6.440;2024-03-22T01:10:00;15.25;;;6.63;;
19554;SDS011;9924;50.828;6.440;2024-03-22T01:12:26;16.63;;;6.97;;
19554;SDS011;9924;50.828;6.440;2024-03-22T01:14:51;16.25;;;5.88;;
19554;SDS011;9924;50.828;6.440;2024-03-22T01:17:17;10.35;;;5.72;;
19554;SDS011;9924;50.828;6.440;2024-03-22T01:19:42;14.90;;;6.35;;
19554;SDS011;9924;50.828;6.440;2024-03-22T01:22:08;12.35;;;5.72;;
19554;SDS011;9924;50.828;6.440;2024-03-22T01:24:34;12.30;;;6.45;;
19554;SDS011;9924;50.828;6.440;2024-03-22T01:26:59;8.88;;;5.40;;
19554;SDS011;9924;50.828;6.440;2024-03-22T01:29:25;12.82;;;5.85;;
19554;SDS011;9924;50.828;6.440;2024-03-22T01:31:52;10.30;;;5.35;;
19554;SDS011;9924;50.828;6.440;2024-03-22T01:34:18;10.45;;;5.40;;
19554;SDS011;9924;50.828;6.440;2024-03-22T01:36:43;12.38;;;5.43;;
19554;SDS011;9924;50.828;6.440;2024-03-22T01:39:09;10.57;;;5.80;;
19554;SDS011;9924;50.828;6.440;2024-03-22T01:41:36;10.35;;;5.00;;
19554;SDS011;9924;50.828;6.440;2024-03-22T01:44:01;12.02;;;5.78;;
19554;SDS011;9924;50.828;6.440;2024-03-22T01:46:27;11.60;;;6.70;;
19554;SDS011;9924;50.828;6.440;2024-03-22T01:48:53;12.85;;;6.32;;
19554;SDS011;9924;50.828;6.440;2024-03-22T01:51:19;12.43;;;5.68;;
19554;SDS011;9924;50.828;6.440;2024-03-22T01:53:45;10.82;;;6.10;;
19554;SDS011;9924;50.828;6.440;2024-03-22T01:56:11;11.15;;;6.15;;
19554;SDS011;9924;50.828;6.440;2024-03-22T01:58:36;12.63;;;6.38;;
19554;SDS011;9924;50.828;6.440;2024-03-22T02:01:02;10.77;;;6.05;;
19554;SDS011;9924;50.828;6.440;2024-03-22T02:03:28;14.00;;;6.30;;
19554;SDS011;9924;50.828;6.440;2024-03-22T02:05:54;11.57;;;6.60;;
19554;SDS011;9924;50.828;6.440;2024-03-22T02:08:21;14.00;;;6.60;;
19554;SDS011;9924;50.828;6.440;2024-03-22T02:10:47;14.27;;;5.93;;
19554;SDS011;9924;50.828;6.440;2024-03-22T02:13:13;11.48;;;6.28;;
19554;SDS011;9924;50.828;6.440;2024-03-22T02:15:38;12.32;;;6.45;;
19554;SDS011;9924;50.828;6.440;2024-03-22T02:18:07;11.85;;;6.30;;
19554;SDS011;9924;50.828;6.440;2024-03-22T02:20:33;13.05;;;6.72;;
19554;SDS011;9924;50.828;6.440;2024-03-22T02:22:58;13.98;;;7.20;;
19554;SDS011;9924;50.828;6.440;2024-03-22T02:25:24;14.68;;;7.38;;
19554;SDS011;9924;50.828;6.440;2024-03-22T02:27:50;14.88;;;6.95;;
19554;SDS011;9924;50.828;6.440;2024-03-22T02:30:18;15.38;;;8.00;;
19554;SDS011;9924;50.828;6.440;2024-03-22T02:32:44;12.65;;;7.45;;
19554;SDS011;9924;50.828;6.440;2024-03-22T02:35:13;15.75;;;7.55;;
19554;SDS011;9924;50.828;6.440;2024-03-22T02:37:38;13.45;;;7.10;;
19554;SDS011;9924;50.828;6.440;2024-03-22T02:40:04;13.20;;;6.97;;
19554;SDS011;9924;50.828;6.440;2024-03-22T02:42:31;14.75;;;7.05;;
19554;SDS011;9924;50.828;6.440;2024-03-22T02:44:56;15.57;;;7.53;;
19554;SDS011;9924;50.828;6.440;2024-03-22T02:47:22;17.38;;;8.20;;
19554;SDS011;9924;50.828;6.440;2024-03-22T02:49:48;14.32;;;7.72;;
19554;SDS011;9924;50.828;6.440;2024-03-22T02:52:13;14.43;;;7.63;;
19554;SDS011;9924;50.828;6.440;2024-03-22T02:54:39;14.15;;;8.02;;
19554;SDS011;9924;50.828;6.440;2024-03-22T02:57:04;15.02;;;8.10;;
19554;SDS011;9924;50.828;6.440;2024-03-22T02:59:30;14.70;;;7.88;;
19554;SDS011;9924;50.828;6.440;2024-03-22T03:01:56;16.35;;;8.35;;
19554;SDS011;9924;50.828;6.440;2024-03-22T03:04:21;16.00;;;8.23;;
19554;SDS011;9924;50.828;6.440;2024-03-22T03:06:47;20.42;;;8.23;;
19554;SDS011;9924;50.828;6.440;2024-03-22T03:09:13;16.67;;;7.78;;
19554;SDS011;9924;50.828;6.440;2024-03-22T03:11:39;18.77;;;8.00;;
19554;SDS011;9924;50.828;6.440;2024-03-22T03:14:05;17.38;;;8.48;;
19554;SDS011;9924;50.828;6.440;2024-03-22T03:16:31;14.35;;;7.63;;
19554;SDS011;9924;50.828;6.440;2024-03-22T03:18:57;17.15;;;8.90;;
19554;SDS011;9924;50.828;6.440;2024-03-22T03:21:22;17.77;;;8.57;;
19554;SDS011;9924;50.828;6.440;2024-03-22T03:23:48;19.52;;;8.25;;
19554;SDS011;9924;50.828;6.440;2024-03-22T03:26:13;14.63;;;7.85;;
19554;SDS011;9924;50.828;6.440;2024-03-22T03:28:39;18.33;;;9.05;;
19554;SDS011;9924;50.828;6.440;2024-03-22T03:31:05;15.40;;;8.45;;
19554;SDS011;9924;50.828;6.440;2024-03-22T03:33:31;14.43;;;8.23;;
19554;SDS011;9924;50.828;6.440;2024-03-22T03:35:56;17.00;;;9.25;;
19554;SDS011;9924;50.828;6.440;2024-03-22T03:38:22;16.00;;;8.20;;
19554;SDS011;9924;50.828;6.440;2024-03-22T03:40:48;17.05;;;8.82;;
19554;SDS011;9924;50.828;6.440;2024-03-22T03:43:13;16.30;;;8.45;;
19554;SDS011;9924;50.828;6.440;2024-03-22T03:45:39;17.80;;;8.60;;
19554;SDS011;9924;50.828;6.440;2024-03-22T03:48:05;15.25;;;8.52;;
19554;SDS011;9924;50.828;6.440;2024-03-22T03:50:31;14.60;;;8.10;;
19554;SDS011;9924;50.828;6.440;2024-03-22T03:52:57;14.90;;;8.35;;
19554;SDS011;9924;50.828;6.440;2024-03-22T03:55:22;16.17;;;8.38;;
19554;SDS011;9924;50.828;6.440;2024-03-22T03:57:51;14.05;;;8.20;;
19554;SDS011;9924;50.828;6.440;2024-03-22T04:00:18;15.93;;;8.50;;
19554;SDS011;9924;50.828;6.440;2024-03-22T04:02:44;18.90;;;8.52;;
19554;SDS011;9924;50.828;6.440;2024-03-22T04:05:10;15.40;;;8.55;;
19554;SDS011;9924;50.828;6.440;2024-03-22T04:07:36;13.45;;;8.02;;
19554;SDS011;9924;50.828;6.440;2024-03-22T04:10:02;18.25;;;8.65;;
19554;SDS011;9924;50.828;6.440;2024-03-22T04:12:28;20.55;;;8.43;;
19554;SDS011;9924;50.828;6.440;2024-03-22T04:14:54;16.88;;;8.00;;
19554;SDS011;9924;50.828;6.440;2024-03-22T04:17:19;14.95;;;8.63;;
19554;SDS011;9924;50.828;6.440;2024-03-22T04:19:45;15.32;;;8.57;;
19554;SDS011;9924;50.828;6.440;2024-03-22T04:22:11;14.65;;;9.00;;
19554;SDS011;9924;50.828;6.440;2024-03-22T04:24:37;19.05;;;9.60;;
19554;SDS011;9924;50.828;6.440;2024-03-22T04:27:02;17.55;;;8.80;;
19554;SDS011;9924;50.828;6.440;2024-03-22T04:29:28;19.60;;;10.75;;
19554;SDS011;9924;50.828;6.440;2024-03-22T04:31:54;22.10;;;10.65;;
19554;SDS011;9924;50.828;6.440;2024-03-22T04:34:20;19.45;;;10.38;;
19554;SDS011;9924;50.828;6.440;2024-03-22T04:36:46;19.17;;;10.70;;
19554;SDS011;9924;50.828;6.440;2024-03-22T04:39:11;18.35;;;10.30;;
19554;SDS011;9924;50.828;6.440;2024-03-22T04:41:37;19.02;;;10.52;;
19554;SDS011;9924;50.828;6.440;2024-03-22T04:44:03;19.25;;;11.48;;
19554;SDS011;9924;50.828;6.440;2024-03-22T04:46:29;21.38;;;10.93;;
19554;SDS011;9924;50.828;6.440;2024-03-22T04:48:55;23.90;;;11.32;;
19554;SDS011;9924;50.828;6.440;2024-03-22T04:51:20;28.77;;;12.65;;
19554;SDS011;9924;50.828;6.440;2024-03-22T04:53:46;20.45;;;11.57;;
19554;SDS011;9924;50.828;6.440;2024-03-22T04:56:11;21.80;;;11.32;;
19554;SDS011;9924;50.828;6.440;2024-03-22T04:58:37;22.33;;;11.90;;
19554;SDS011;9924;50.828;6.440;2024-03-22T05:01:03;22.33;;;11.50;;
19554;SDS011;9924;50.828;6.440;2024-03-22T05:03:29;21.17;;;10.98;;
19554;SDS011;9924;50.828;6.440;2024-03-22T05:05:54;20.58;;;11.65;;
19554;SDS011;9924;50.828;6.440;2024-03-22T05:08:21;22.08;;;11.13;;
19554;SDS011;9924;50.828;6.440;2024-03-22T05:10:47;22.33;;;11.82;;
19554;SDS011;9924;50.828;6.440;2024-03-22T05:13:13;22.67;;;11.63;;
19554;SDS011;9924;50.828;6.440;2024-03-22T05:15:39;21.73;;;11.70;;
19554;SDS011;9924;50.828;6.440;2024-03-22T05:18:04;23.20;;;12.35;;
19554;SDS011;9924;50.828;6.440;2024-03-22T05:20:30;22.95;;;12.25;;
19554;SDS011;9924;50.828;6.440;2024-03-22T05:22:56;27.75;;;12.98;;
19554;SDS011;9924;50.828;6.440;2024-03-22T05:25:21;26.38;;;12.60;;
19554;SDS011;9924;50.828;6.440;2024-03-22T05:27:47;23.90;;;12.10;;
19554;SDS011;9924;50.828;6.440;2024-03-22T05:30:13;19.60;;;12.35;;
19554;SDS011;9924;50.828;6.440;2024-03-22T05:32:39;25.52;;;13.20;;
19554;SDS011;9924;50.828;6.440;2024-03-22T05:35:05;30.80;;;13.55;;
19554;SDS011;9924;50.828;6.440;2024-03-22T05:37:32;26.48;;;13.27;;
19554;SDS011;9924;50.828;6.440;2024-03-22T05:39:58;27.52;;;13.63;;
19554;SDS011;9924;50.828;6.440;2024-03-22T05:42:25;28.60;;;14.73;;
19554;SDS011;9924;50.828;6.440;2024-03-22T05:44:51;29.15;;;14.90;;
19554;SDS011;9924;50.828;6.440;2024-03-22T05:47:18;27.08;;;13.73;;
19554;SDS011;9924;50.828;6.440;2024-03-22T05:49:44;29.67;;;14.07;;
19554;SDS011;9924;50.828;6.440;2024-03-22T05:52:10;28.08;;;15.73;;
19554;SDS011;9924;50.828;6.440;2024-03-22T05:54:37;30.02;;;15.48;;
19554;SDS011;9924;50.828;6.440;2024-03-22T05:57:02;34.58;;;14.70;;
19554;SDS011;9924;50.828;6.440;2024-03-22T05:59:30;32.20;;;16.13;;
19554;SDS011;9924;50.828;6.440;2024-03-22T06:01:56;29.48;;;15.57;;
19554;SDS011;9924;50.828;6.440;2024-03-22T06:04:21;25.98;;;15.05;;
19554;SDS011;9924;50.828;6.440;2024-03-22T06:06:48;34.17;;;14.73;;
19554;SDS011;9924;50.828;6.440;2024-03-22T06:09:14;32.40;;;14.75;;
19554;SDS011;9924;50.828;6.440;2024-03-22T06:11:48;26.77;;;13.95;;
19554;SDS011;9924;50.828;6.440;2024-03-22T06:14:17;30.70;;;14.40;;
19554;SDS011;9924;50.828;6.440;2024-03-22T06:16:43;24.15;;;13.18;;
19554;SDS011;9924;50.828;6.440;2024-03-22T06:19:09;26.08;;;13.85;;
19554;SDS011;9924;50.828;6.440;2024-03-22T06:21:34;25.65;;;14.55;;
19554;SDS011;9924;50.828;6.440;2024-03-22T06:24:00;24.20;;;13.52;;
19554;SDS011;9924;50.828;6.440;2024-03-22T06:26:26;27.85;;;13.52;;
19554;SDS011;9924;50.828;6.440;2024-03-22T06:28:52;28.30;;;13.52;;
19554;SDS011;9924;50.828;6.440;2024-03-22T06:31:17;26.55;;;11.90;;
19554;SDS011;9924;50.828;6.440;2024-03-22T06:33:43;20.88;;;11.07;;
19554;SDS011;9924;50.828;6.440;2024-03-22T06:36:08;24.88;;;10.00;;
19554;SDS011;9924;50.828;6.440;2024-03-22T06:38:34;18.55;;;9.55;;
19554;SDS011;9924;50.828;6.440;2024-03-22T06:41:00;25.00;;;9.13;;
19554;SDS011;9924;50.828;6.440;2024-03-22T06:43:26;16.20;;;8.38;;
19554;SDS011;9924;50.828;6.440;2024-03-22T06:45:51;14.85;;;7.68;;
19554;SDS011;9924;50.828;6.440;2024-03-22T06:48:17;13.07;;;7.05;;
19554;SDS011;9924;50.828;6.440;2024-03-22T06:50:43;12.88;;;7.43;;
19554;SDS011;9924;50.828;6.440;2024-03-22T06:53:09;14.65;;;6.80;;
19554;SDS011;9924;50.828;6.440;2024-03-22T06:55:35;10.95;;;5.75;;
19554;SDS011;9924;50.828;6.440;2024-03-22T06:58:01;13.18;;;6.00;;
19554;SDS011;9924;50.828;6.440;2024-03-22T07:00:27;15.38;;;6.15;;
19554;SDS011;9924;50.828;6.440;2024-03-22T07:02:53;12.77;;;6.65;;
19554;SDS011;9924;50.828;6.440;2024-03-22T07:05:20;14.15;;;6.88;;
19554;SDS011;9924;50.828;6.440;2024-03-22T07:07:47;14.43;;;6.45;;
19554;SDS011;9924;50.828;6.440;2024-03-22T07:10:12;14.88;;;6.55;;
19554;SDS011;9924;50.828;6.440;2024-03-22T07:12:38;13.73;;;6.65;;
19554;SDS011;9924;50.828;6.440;2024-03-22T07:15:04;15.88;;;7.63;;
19554;SDS011;9924;50.828;6.440;2024-03-22T07:17:30;17.67;;;7.95;;
19554;SDS011;9924;50.828;6.440;2024-03-22T07:19:56;14.20;;;8.00;;
19554;SDS011;9924;50.828;6.440;2024-03-22T07:22:22;19.92;;;8.55;;
19554;SDS011;9924;50.828;6.440;2024-03-22T07:24:48;19.35;;;8.90;;
19554;SDS011;9924;50.828;6.440;2024-03-22T07:27:14;16.75;;;8.93;;
19554;SDS011;9924;50.828;6.440;2024-03-22T07:29:40;24.23;;;10.52;;
19554;SDS011;9924;50.828;6.440;2024-03-22T07:32:06;20.33;;;10.38;;
19554;SDS011;9924;50.828;6.440;2024-03-22T07:34:32;17.10;;;10.55;;
19554;SDS011;9924;50.828;6.440;2024-03-22T07:36:58;20.38;;;10.70;;
19554;SDS011;9924;50.828;6.440;2024-03-22T07:39:23;21.15;;;10.57;;
19554;SDS011;9924;50.828;6.440;2024-03-22T07:41:50;20.48;;;10.80;;
19554;SDS011;9924;50.828;6.440;2024-03-22T07:44:16;24.00;;;10.90;;
19554;SDS011;9924;50.828;6.440;2024-03-22T07:46:53;26.02;;;11.80;;
19554;SDS011;9924;50.828;6.440;2024-03-22T07:49:19;23.65;;;12.30;;
19554;SDS011;9924;50.828;6.440;2024-03-22T07:51:44;25.85;;;11.30;;
19554;SDS011;9924;50.828;6.440;2024-03-22T07:54:10;25.58;;;11.48;;
19554;SDS011;9924;50.828;6.440;2024-03-22T07:56:36;21.23;;;11.25;;
19554;SDS011;9924;50.828;6.440;2024-03-22T07:59:01;24.08;;;11.98;;
19554;SDS011;9924;50.828;6.440;2024-03-22T08:01:27;23.70;;;11.70;;
19554;SDS011;9924;50.828;6.440;2024-03-22T08:03:53;20.92;;;11.07;;
19554;SDS011;9924;50.828;6.440;2024-03-22T08:06:18;23.85;;;10.98;;
19554;SDS011;9924;50.828;6.440;2024-03-22T08:08:44;19.42;;;10.85;;
19554;SDS011;9924;50.828;6.440;2024-03-22T08:11:10;20.20;;;11.60;;
19554;SDS011;9924;50.828;6.440;2024-03-22T08:13:36;21.02;;;11.07;;
19554;SDS011;9924;50.828;6.440;2024-03-22T08:16:02;18.52;;;10.02;;
19554;SDS011;9924;50.828;6.440;2024-03-22T08:18:28;20.15;;;10.00;;
19554;SDS011;9924;50.828;6.440;2024-03-22T08:20:54;22.15;;;10.55;;
19554;SDS011;9924;50.828;6.440;2024-03-22T08:23:20;21.98;;;11.00;;
19554;SDS011;9924;50.828;6.440;2024-03-22T08:25:47;18.63;;;9.45;;
19554;SDS011;9924;50.828;6.440;2024-03-22T08:28:13;16.95;;;9.10;;
19554;SDS011;9924;50.828;6.440;2024-03-22T08:30:39;17.83;;;10.00;;
19554;SDS011;9924;50.828;6.440;2024-03-22T08:33:04;19.02;;;9.27;;
19554;SDS011;9924;50.828;6.440;2024-03-22T08:35:30;17.88;;;8.90;;
19554;SDS011;9924;50.828;6.440;2024-03-22T08:37:56;14.77;;;8.90;;
19554;SDS011;9924;50.828;6.440;2024-03-22T08:40:22;16.98;;;9.50;;
19554;SDS011;9924;50.828;6.440;2024-03-22T08:42:48;17.73;;;9.80;;
19554;SDS011;9924;50.828;6.440;2024-03-22T08:45:13;19.98;;;8.82;;
19554;SDS011;9924;50.828;6.440;2024-03-22T08:47:41;16.42;;;8.82;;
19554;SDS011;9924;50.828;6.440;2024-03-22T08:50:07;16.08;;;8.65;;
19554;SDS011;9924;50.828;6.440;2024-03-22T08:52:33;17.90;;;7.85;;
19554;SDS011;9924;50.828;6.440;2024-03-22T08:55:01;18.85;;;9.80;;
19554;SDS011;9924;50.828;6.440;2024-03-22T08:57:26;14.63;;;8.07;;
19554;SDS011;9924;50.828;6.440;2024-03-22T08:59:52;18.55;;;8.82;;
19554;SDS011;9924;50.828;6.440;2024-03-22T09:02:18;13.90;;;8.18;;
19554;SDS011;9924;50.828;6.440;2024-03-22T09:04:43;15.52;;;7.57;;
19554;SDS011;9924;50.828;6.440;2024-03-22T09:07:09;16.70;;;8.18;;
19554;SDS011;9924;50.828;6.440;2024-03-22T09:09:35;14.85;;;8.55;;
19554;SDS011;9924;50.828;6.440;2024-03-22T09:12:00;16.48;;;8.23;;
19554;SDS011;9924;50.828;6.440;2024-03-22T09:14:26;16.80;;;8.07;;
19554;SDS011;9924;50.828;6.440;2024-03-22T09:16:52;14.50;;;8.45;;
19554;SDS011;9924;50.828;6.440;2024-03-22T09:19:17;15.57;;;8.55;;
19554;SDS011;9924;50.828;6.440;2024-03-22T09:21:43;12.32;;;7.95;;
19554;SDS011;9924;50.828;6.440;2024-03-22T09:24:08;12.52;;;7.53;;
19554;SDS011;9924;50.828;6.440;2024-03-22T09:26:37;16.70;;;8.13;;
19554;SDS011;9924;50.828;6.440;2024-03-22T09:29:03;16.30;;;8.73;;
19554;SDS011;9924;50.828;6.440;2024-03-22T09:31:29;15.10;;;7.75;;
19554;SDS011;9924;50.828;6.440;2024-03-22T09:33:56;16.85;;;7.28;;
19554;SDS011;9924;50.828;6.440;2024-03-22T09:36:21;17.67;;;7.32;;
19554;SDS011;9924;50.828;6.440;2024-03-22T09:38:47;14.63;;;7.10;;
19554;SDS011;9924;50.828;6.440;2024-03-22T09:41:14;14.77;;;7.65;;
19554;SDS011;9924;50.828;6.440;2024-03-22T09:43:40;13.75;;;7.45;;
19554;SDS011;9924;50.828;6.440;2024-03-22T09:46:09;13.57;;;7.00;;
19554;SDS011;9924;50.828;6.440;2024-03-22T09:48:38;12.93;;;7.63;;
19554;SDS011;9924;50.828;6.440;2024-03-22T09:51:04;12.63;;;6.38;;
19554;SDS011;9924;50.828;6.440;2024-03-22T09:53:30;13.18;;;7.00;;
19554;SDS011;9924;50.828;6.440;2024-03-22T09:55:57;12.93;;;6.85;;
19554;SDS011;9924;50.828;6.440;2024-03-22T09:58:26;12.18;;;6.50;;
19554;SDS011;9924;50.828;6.440;2024-03-22T10:00:52;14.30;;;6.43;;
19554;SDS011;9924;50.828;6.440;2024-03-22T10:03:20;14.55;;;6.50;;
19554;SDS011;9924;50.828;6.440;2024-03-22T10:05:46;13.40;;;7.00;;
19554;SDS011;9924;50.828;6.440;2024-03-22T10:08:12;11.85;;;6.65;;
19554;SDS011;9924;50.828;6.440;2024-03-22T10:10:38;14.13;;;6.57;;
19554;SDS011;9924;50.828;6.440;2024-03-22T10:13:04;11.88;;;6.60;;
19554;SDS011;9924;50.828;6.440;2024-03-22T10:15:30;13.10;;;6.68;;
19554;SDS011;9924;50.828;6.440;2024-03-22T10:17:56;14.70;;;7.07;;
19554;SDS011;9924;50.828;6.440;2024-03-22T10:20:22;14.23;;;7.15;;
19554;SDS011;9924;50.828;6.440;2024-03-22T10:22:48;15.27;;;7.13;;
19554;SDS011;9924;50.828;6.440;2024-03-22T10:25:25;16.65;;;8.05;;
19554;SDS011;9924;50.828;6.440;2024-03-22T10:27:53;14.00;;;7.35;;
19554;SDS011;9924;50.828;6.440;2024-03-22T10:30:19;15.52;;;8.32;;
19554;SDS011;9924;50.828;6.440;2024-03-22T10:32:46;16.45;;;8.10;;
19554;SDS011;9924;50.828;6.440;2024-03-22T10:35:13;15.02;;;8.57;;
19554;SDS011;9924;50.828;6.440;2024-03-22T10:37:40;15.13;;;7.70;;
19554;SDS011;9924;50.828;6.440;2024-03-22T10:40:07;16.05;;;8.95;;
19554;SDS011;9924;50.828;6.440;2024-03-22T10:42:34;15.10;;;8.60;;
19554;SDS011;9924;50.828;6.440;2024-03-22T10:45:07;16.13;;;9.10;;
19554;SDS011;9924;50.828;6.440;2024-03-22T10:47:35;17.35;;;9.07;;
19554;SDS011;9924;50.828;6.440;2024-03-22T10:50:04;15.18;;;8.32;;
19554;SDS011;9924;50.828;6.440;2024-03-22T10:52:47;17.17;;;9.40;;
19554;SDS011;9924;50.828;6.440;2024-03-22T10:55:24;17.10;;;8.68;;
19554;SDS011;9924;50.828;6.440;2024-03-22T10:57:57;15.70;;;9.10;;
19554;SDS011;9924;50.828;6.440;2024-03-22T11:00:32;16.65;;;8.07;;
19554;SDS011;9924;50.828;6.440;2024-03-22T11:03:02;22.27;;;10.13;;
19554;SDS011;9924;50.828;6.440;2024-03-22T11:05:29;15.43;;;8.98;;
19554;SDS011;9924;50.828;6.440;2024-03-22T11:07:58;14.27;;;9.60;;
19554;SDS011;9924;50.828;6.440;2024-03-22T11:10:29;19.92;;;9.65;;
19554;SDS011;9924;50.828;6.440;2024-03-22T11:13:00;16.95;;;9.18;;
19554;SDS011;9924;50.828;6.440;2024-03-22T11:15:30;27.73;;;9.35;;
19554;SDS011;9924;50.828;6.440;2024-03-22T11:17:57;17.10;;;9.43;;
19554;SDS011;9924;50.828;6.440;2024-03-22T11:20:24;15.15;;;8.48;;
19554;SDS011;9924;50.828;6.440;2024-03-22T11:22:53;15.88;;;9.20;;
19554;SDS011;9924;50.828;6.440;2024-03-22T11:25:19;17.23;;;8.85;;
19554;SDS011;9924;50.828;6.440;2024-03-22T11:27:45;16.50;;;8.40;;
19554;SDS011;9924;50.828;6.440;2024-03-22T11:30:12;14.70;;;8.10;;
19554;SDS011;9924;50.828;6.440;2024-03-22T11:32:38;15.63;;;7.47;;
19554;SDS011;9924;50.828;6.440;2024-03-22T11:35:10;15.70;;;8.40;;
19554;SDS011;9924;50.828;6.440;2024-03-22T11:37:36;13.32;;;7.53;;
19554;SDS011;9924;50.828;6.440;2024-03-22T11:40:06;14.65;;;6.82;;
19554;SDS011;9924;50.828;6.440;2024-03-22T11:42:37;11.32;;;6.68;;
19554;SDS011;9924;50.828;6.440;2024-03-22T11:45:04;11.70;;;6.55;;
19554;SDS011;9924;50.828;6.440;2024-03-22T11:47:31;11.73;;;6.70;;
19554;SDS011;9924;50.828;6.440;2024-03-22T11:49:58;12.10;;;7.10;;
19554;SDS011;9924;50.828;6.440;2024-03-22T11:52:24;14.80;;;7.68;;
19554;SDS011;9924;50.828;6.440;2024-03-22T11:54:54;15.00;;;7.40;;
19554;SDS011;9924;50.828;6.440;2024-03-22T11:57:22;15.43;;;7.85;;
19554;SDS011;9924;50.828;6.440;2024-03-22T11:59:49;13.95;;;7.28;;
19554;SDS011;9924;50.828;6.440;2024-03-22T12:02:16;12.95;;;6.90;;
19554;SDS011;9924;50.828;6.440;2024-03-22T12:04:42;14.82;;;7.65;;
19554;SDS011;9924;50.828;6.440;2024-03-22T12:07:13;13.93;;;7.25;;
19554;SDS011;9924;50.828;6.440;2024-03-22T12:09:40;12.65;;;7.10;;
19554;SDS011;9924;50.828;6.440;2024-03-22T12:12:07;14.48;;;7.35;;
19554;SDS011;9924;50.828;6.440;2024-03-22T12:14:35;12.88;;;6.57;;
19554;SDS011;9924;50.828;6.440;2024-03-22T12:17:04;15.07;;;7.68;;
19554;SDS011;9924;50.828;6.440;2024-03-22T12:19:30;20.67;;;8.55;;
19554;SDS011;9924;50.828;6.440;2024-03-22T12:21:56;12.55;;;7.20;;
19554;SDS011;9924;50.828;6.440;2024-03-22T12:24:22;11.38;;;7.35;;
19554;SDS011;9924;50.828;6.440;2024-03-22T12:26:49;12.65;;;7.65;;
19554;SDS011;9924;50.828;6.440;2024-03-22T12:29:15;14.23;;;7.10;;
19554;SDS011;9924;50.828;6.440;2024-03-22T12:31:41;13.65;;;7.03;;
19554;SDS011;9924;50.828;6.440;2024-03-22T12:34:08;13.05;;;7.70;;
19554;SDS011;9924;50.828;6.440;2024-03-22T12:36:33;12.50;;;7.60;;
19554;SDS011;9924;50.828;6.440;2024-03-22T12:38:59;16.05;;;8.63;;
19554;SDS011;9924;50.828;6.440;2024-03-22T12:41:25;17.67;;;7.15;;
19554;SDS011;9924;50.828;6.440;2024-03-22T12:43:55;13.60;;;7.65;;
19554;SDS011;9924;50.828;6.440;2024-03-22T12:46:21;18.88;;;8.10;;
19554;SDS011;9924;50.828;6.440;2024-03-22T12:48:47;13.77;;;7.40;;
19554;SDS011;9924;50.828;6.440;2024-03-22T12:51:12;12.55;;;7.43;;
19554;SDS011;9924;50.828;6.440;2024-03-22T12:53:38;14.07;;;7.78;;
19554;SDS011;9924;50.828;6.440;2024-03-22T12:56:04;12.65;;;7.35;;
19554;SDS011;9924;50.828;6.440;2024-03-22T12:58:30;12.13;;;6.60;;
19554;SDS011;9924;50.828;6.440;2024-03-22T13:00:56;15.48;;;8.13;;
19554;SDS011;9924;50.828;6.440;2024-03-22T13:03:23;15.18;;;8.23;;
19554;SDS011;9924;50.828;6.440;2024-03-22T13:05:49;18.35;;;8.45;;
19554;SDS011;9924;50.828;6.440;2024-03-22T13:08:14;18.55;;;9.52;;
19554;SDS011;9924;50.828;6.440;2024-03-22T13:10:40;15.93;;;8.35;;
19554;SDS011;9924;50.828;6.440;2024-03-22T13:13:08;15.13;;;9.07;;
19554;SDS011;9924;50.828;6.440;2024-03-22T13:15:34;13.57;;;8.32;;
19554;SDS011;9924;50.828;6.440;2024-03-22T13:18:02;16.67;;;8.57;;
19554;SDS011;9924;50.828;6.440;2024-03-22T13:20:28;16.65;;;8.90;;
19554;SDS011;9924;50.828;6.440;2024-03-22T13:22:54;16.48;;;8.60;;
19554;SDS011;9924;50.828;6.440;2024-03-22T13:25:21;12.68;;;8.38;;
19554;SDS011;9924;50.828;6.440;2024-03-22T13:27:46;19.15;;;8.75;;
19554;SDS011;9924;50.828;6.440;2024-03-22T13:30:12;14.48;;;7.85;;
19554;SDS011;9924;50.828;6.440;2024-03-22T13:32:39;13.43;;;8.07;;
19554;SDS011;9924;50.828;6.440;2024-03-22T13:35:05;22.23;;;8.57;;
19554;SDS011;9924;50.828;6.440;2024-03-22T13:37:31;13.73;;;9.15;;
19554;SDS011;9924;50.828;6.440;2024-03-22T13:39:57;13.48;;;7.97;;
19554;SDS011;9924;50.828;6.440;2024-03-22T13:42:23;19.10;;;8.82;;
19554;SDS011;9924;50.828;6.440;2024-03-22T13:44:49;15.25;;;8.63;;
19554;SDS011;9924;50.828;6.440;2024-03-22T13:47:15;10.07;;;6.75;;
19554;SDS011;9924;50.828;6.440;2024-03-22T13:49:41;15.25;;;8.20;;
19554;SDS011;9924;50.828;6.440;2024-03-22T13:52:08;14.95;;;9.48;;
19554;SDS011;9924;50.828;6.440;2024-03-22T13:54:34;14.77;;;8.63;;
19554;SDS011;9924;50.828;6.440;2024-03-22T13:57:00;15.65;;;9.50;;
19554;SDS011;9924;50.828;6.440;2024-03-22T13:59:29;20.17;;;11.27;;
19554;SDS011;9924;50.828;6.440;2024-03-22T14:01:55;19.48;;;10.43;;
19554;SDS011;9924;50.828;6.440;2024-03-22T14:04:22;15.93;;;9.73;;
19554;SDS011;9924;50.828;6.440;2024-03-22T14:06:48;19.52;;;9.75;;
19554;SDS011;9924;50.828;6.440;2024-03-22T14:09:14;16.92;;;9.00;;
19554;SDS011;9924;50.828;6.440;2024-03-22T14:11:40;16.92;;;8.98;;
19554;SDS011;9924;50.828;6.440;2024-03-22T14:14:08;16.13;;;9.30;;
19554;SDS011;9924;50.828;6.440;2024-03-22T14:16:37;17.67;;;9.95;;
19554;SDS011;9924;50.828;6.440;2024-03-22T14:19:06;17.23;;;8.90;;
19554;SDS011;9924;50.828;6.440;2024-03-22T14:21:33;14.35;;;8.38;;
19554;SDS011;9924;50.828;6.440;2024-03-22T14:23:59;15.75;;;8.93;;
19554;SDS011;9924;50.828;6.440;2024-03-22T14:26:25;15.77;;;7.57;;
19554;SDS011;9924;50.828;6.440;2024-03-22T14:28:51;16.35;;;8.50;;
19554;SDS011;9924;50.828;6.440;2024-03-22T14:31:18;15.10;;;8.48;;
19554;SDS011;9924;50.828;6.440;2024-03-22T14:33:44;14.85;;;7.82;;
19554;SDS011;9924;50.828;6.440;2024-03-22T14:36:10;15.73;;;8.48;;
19554;SDS011;9924;50.828;6.440;2024-03-22T14:38:38;14.57;;;8.00;;
19554;SDS011;9924;50.828;6.440;2024-03-22T14:41:03;16.00;;;6.78;;